Glenda Meredith — A8TX2 — position and weather

sailwx.info

Track history (hours):
 
Tides and Currents Weather Stations Pressure Air Temp Water Temp Dewpoint Dewpoint Depression Visibility Wind Speed Wind Dir Waves Ship Positions

Glenda Meredith

Last reported at 2017-May-23 13:56 UTC. Time now 2017-Jun-23 19:16 UTC.
Position N 09°13' W 079°55'.
Warning: this ship's position is 31 days out of date.

Length 183 m; draft 11.8 m.

Type: Ship. MMSI: 636014450.

Date/timePositionNaut miles runAvg speedWind from/ knotsBaromVisibWave heightAir tempDewpointWater temp
2017-May-23 13:56N 09°13' W 079°55'2 0.6
2017-May-23 10:48N 09°14' W 079°55'1 4.9
2017-May-23 10:30N 09°16' W 079°55'0 0.9
2017-May-23 10:00N 09°16' W 079°55'0 0.3
2017-May-23 09:31N 09°16' W 079°55'0 0.4
2017-May-23 09:00N 09°17' W 079°55'0 0.3
2017-May-23 08:30N 09°17' W 079°55'1 1.7
2017-May-23 08:00N 09°18' W 079°55'2 5.0
2017-May-23 07:30N 09°20' W 079°55'2 4.9
2017-May-23 07:00N 09°23' W 079°55'3 5.7
2017-May-23 06:30N 09°25' W 079°55'1 1.0
2017-May-23 06:00N 09°26' W 079°55'0 0.1
2017-May-23 05:26N 09°26' W 079°55'0 0.0
2017-May-23 04:59N 09°26' W 079°55'0 0.0
2017-May-23 04:23N 09°26' W 079°55'0 0.0
2017-May-23 03:47N 09°26' W 079°55'0 0.1
2017-May-23 03:29N 09°26' W 079°55'0 0.0
2017-May-23 02:59N 09°26' W 079°55'0 0.2
2017-May-23 02:30N 09°26' W 079°55'2 3.2
2017-May-23 02:01N 09°27' W 079°55'3 6.3
2017-May-23 01:30N 09°30' W 079°54'  
2017-May-16 22:09N 29°22' W 094°51'2 8.0
2017-May-16 21:55N 29°23' W 094°53'  
2017-May-14 14:00N 29°23' W 094°53'  
Track history (hours):
 
Tides and Currents Weather Stations Pressure Air Temp Water Temp Dewpoint Dewpoint Depression Visibility Wind Speed Wind Dir Waves Ship Positions

Glenda Meredith

Last reported at 2017-May-23 13:56 UTC. Time now 2017-Jun-23 19:16 UTC.
Position N 09°13' W 079°55'.
Warning: this ship's position is 31 days out of date.

Length 183 m; draft 11.8 m.

Type: Ship. MMSI: 636014450.

Date/timePositionNaut miles runAvg speedWind from/ knotsBaromVisibWave heightAir tempDewpointWater temp
2017-May-23 13:56N 09°13' W 079°55'2 0.6
2017-May-23 10:48N 09°14' W 079°55'1 4.9
2017-May-23 10:30N 09°16' W 079°55'0 0.9
2017-May-23 10:00N 09°16' W 079°55'0 0.3
2017-May-23 09:31N 09°16' W 079°55'0 0.4
2017-May-23 09:00N 09°17' W 079°55'0 0.3
2017-May-23 08:30N 09°17' W 079°55'1 1.7
2017-May-23 08:00N 09°18' W 079°55'2 5.0
2017-May-23 07:30N 09°20' W 079°55'2 4.9
2017-May-23 07:00N 09°23' W 079°55'3 5.7
2017-May-23 06:30N 09°25' W 079°55'1 1.0
2017-May-23 06:00N 09°26' W 079°55'0 0.1
2017-May-23 05:26N 09°26' W 079°55'0 0.0
2017-May-23 04:59N 09°26' W 079°55'0 0.0
2017-May-23 04:23N 09°26' W 079°55'0 0.0
2017-May-23 03:47N 09°26' W 079°55'0 0.1
2017-May-23 03:29N 09°26' W 079°55'0 0.0
2017-May-23 02:59N 09°26' W 079°55'0 0.2
2017-May-23 02:30N 09°26' W 079°55'2 3.2
2017-May-23 02:01N 09°27' W 079°55'3 6.3
2017-May-23 01:30N 09°30' W 079°54'  
2017-May-16 22:09N 29°22' W 094°51'2 8.0
2017-May-16 21:55N 29°23' W 094°53'  
2017-May-14 14:00N 29°23' W 094°53'  

Dump ship's entire track history